createdAt,value
2023-04-08T00:00:13.047Z,7.47
2023-04-08T00:01:36.633Z,7.48
2023-04-08T00:02:39.685Z,7.46
2023-04-08T00:03:42.802Z,7.47
2023-04-08T00:04:45.918Z,7.48
2023-04-08T00:05:48.726Z,7.47
2023-04-08T00:06:51.713Z,7.47
2023-04-08T00:07:54.604Z,7.48
2023-04-08T00:08:57.499Z,7.45
2023-04-08T00:10:00.336Z,7.43
2023-04-08T00:11:03.194Z,7.41
2023-04-08T00:12:06.390Z,7.40
2023-04-08T00:13:09.291Z,7.41
2023-04-08T00:14:12.329Z,7.42
2023-04-08T00:15:15.402Z,7.44
2023-04-08T00:16:18.233Z,7.47
2023-04-08T00:17:21.228Z,7.49
2023-04-08T00:18:24.070Z,7.50
2023-04-08T00:19:26.844Z,7.51
2023-04-08T00:20:29.817Z,7.52
2023-04-08T00:21:32.606Z,7.53
2023-04-08T00:22:36.736Z,7.54
2023-04-08T00:23:41.643Z,7.56
2023-04-08T00:24:44.488Z,7.58
2023-04-08T00:25:47.433Z,7.59
2023-04-08T00:26:50.655Z,7.59
2023-04-08T00:27:53.693Z,7.58
2023-04-08T00:28:56.529Z,7.58
2023-04-08T00:30:00.311Z,7.57
2023-04-08T00:31:03.192Z,7.56
2023-04-08T00:32:06.410Z,7.55
2023-04-08T00:33:10.255Z,7.56
2023-04-08T00:34:15.065Z,7.55
2023-04-08T00:35:17.871Z,7.54
2023-04-08T00:36:20.765Z,7.54
2023-04-08T00:37:25.042Z,7.54
2023-04-08T00:38:28.117Z,7.54
2023-04-08T00:39:30.902Z,7.55
2023-04-08T00:40:34.731Z,7.54
2023-04-08T00:41:37.647Z,7.53
2023-04-08T00:42:40.588Z,7.53
2023-04-08T00:43:43.599Z,7.53
2023-04-08T00:44:46.504Z,7.53
2023-04-08T00:45:49.787Z,7.52
2023-04-08T00:46:53.215Z,7.54
2023-04-08T00:47:56.904Z,7.55
2023-04-08T00:48:59.824Z,7.55
2023-04-08T00:50:04.233Z,7.54
2023-04-08T00:51:08.002Z,7.53
2023-04-08T00:52:11.117Z,7.54
2023-04-08T00:53:18.859Z,7.55
2023-04-08T00:54:21.814Z,7.56
2023-04-08T00:55:24.883Z,7.58
2023-04-08T00:56:28.435Z,7.60
2023-04-08T00:57:31.717Z,7.62
2023-04-08T00:58:34.628Z,7.63
2023-04-08T00:59:37.654Z,7.65
2023-04-08T01:00:54.883Z,7.64
2023-04-08T01:02:23.640Z,7.60
2023-04-08T01:03:44.333Z,7.56
2023-04-08T01:04:59.222Z,7.53
2023-04-08T01:06:13.409Z,7.52
2023-04-08T01:07:27.431Z,7.52
2023-04-08T01:08:32.370Z,7.50
2023-04-08T01:09:39.237Z,7.50
2023-04-08T01:10:45.700Z,7.50
2023-04-08T01:11:51.827Z,7.50
2023-04-08T01:13:00.284Z,7.49
2023-04-08T01:14:10.242Z,7.48
2023-04-08T01:15:14.662Z,7.47
2023-04-08T01:16:18.692Z,7.47
2023-04-08T01:17:22.826Z,7.46
2023-04-08T01:18:29.699Z,7.47
2023-04-08T01:19:36.052Z,7.45
2023-04-08T01:20:40.787Z,7.45
2023-04-08T01:21:43.812Z,7.44
2023-04-08T01:23:05.518Z,7.45
2023-04-08T01:24:19.273Z,7.45
2023-04-08T01:25:27.308Z,7.44
2023-04-08T01:26:31.350Z,7.43
2023-04-08T01:27:35.900Z,7.44
2023-04-08T01:28:41.034Z,7.44
2023-04-08T01:29:45.721Z,7.46
2023-04-08T01:31:37.004Z,7.45
2023-04-08T01:32:42.947Z,7.41
2023-04-08T01:33:47.889Z,7.39
2023-04-08T01:34:52.326Z,7.39
2023-04-08T01:35:57.989Z,7.37
2023-04-08T01:37:02.829Z,7.37
2023-04-08T01:38:07.496Z,7.36
2023-04-08T01:39:11.417Z,7.35
2023-04-08T01:40:16.712Z,7.34
2023-04-08T01:41:21.511Z,7.32
2023-04-08T01:42:25.948Z,7.32
2023-04-08T01:43:29.792Z,7.29
2023-04-08T01:44:35.240Z,7.29
2023-04-08T01:45:38.818Z,7.26
2023-04-08T01:46:43.024Z,7.26
2023-04-08T01:47:50.044Z,7.24
2023-04-08T01:48:53.903Z,7.22
2023-04-08T01:49:59.832Z,7.20
2023-04-08T01:51:05.330Z,7.18
2023-04-08T01:52:09.835Z,7.17
2023-04-08T01:53:14.078Z,7.16
2023-04-08T01:54:17.073Z,7.16
2023-04-08T01:55:20.583Z,7.17
2023-04-08T01:56:26.167Z,7.15
2023-04-08T01:57:34.241Z,7.15
2023-04-08T01:58:40.922Z,7.14
2023-04-08T01:59:51.538Z,7.14
2023-04-08T02:00:56.690Z,7.14
2023-04-08T02:02:02.145Z,7.12
2023-04-08T02:03:07.690Z,7.11
2023-04-08T02:04:11.206Z,7.11
2023-04-08T02:05:14.801Z,7.11
2023-04-08T02:06:18.044Z,7.11
2023-04-08T02:07:21.149Z,7.10
2023-04-08T02:08:23.978Z,7.06
2023-04-08T02:09:27.408Z,7.04
2023-04-08T02:10:30.197Z,7.03
2023-04-08T02:11:33.117Z,7.03
2023-04-08T02:12:36.026Z,7.03
2023-04-08T02:13:38.863Z,7.02
2023-04-08T02:14:41.835Z,7.01
2023-04-08T02:15:54.157Z,6.99
2023-04-08T02:17:06.062Z,6.97
2023-04-08T02:18:30.004Z,6.97
2023-04-08T02:19:49.027Z,6.95
2023-04-08T02:21:16.616Z,6.96
2023-04-08T02:22:39.709Z,6.94
2023-04-08T02:23:49.428Z,6.94
2023-04-08T02:24:53.266Z,6.96
2023-04-08T02:25:57.587Z,6.98
2023-04-08T02:27:04.252Z,6.97
2023-04-08T02:28:11.392Z,6.97
2023-04-08T02:29:16.277Z,6.96
2023-04-08T02:30:20.558Z,6.94
2023-04-08T02:31:24.666Z,6.94
2023-04-08T02:32:28.946Z,6.95
2023-04-08T02:33:34.638Z,6.93
2023-04-08T02:34:40.570Z,6.90
2023-04-08T02:35:45.339Z,6.86
2023-04-08T02:36:48.560Z,6.84
2023-04-08T02:37:52.794Z,6.84
2023-04-08T02:38:55.731Z,6.85
2023-04-08T02:39:59.740Z,6.86
2023-04-08T02:41:02.599Z,6.87
2023-04-08T02:42:06.124Z,6.86
2023-04-08T02:43:08.972Z,6.86
2023-04-08T02:44:11.851Z,6.85
2023-04-08T02:45:16.738Z,6.85
2023-04-08T02:46:19.772Z,6.85
2023-04-08T02:47:22.669Z,6.83
2023-04-08T02:48:26.342Z,6.84
2023-04-08T02:49:30.516Z,6.86
2023-04-08T02:50:33.537Z,6.86
2023-04-08T02:51:36.351Z,6.87
2023-04-08T02:52:39.538Z,6.89
2023-04-08T02:53:42.392Z,6.90
2023-04-08T02:54:45.258Z,6.90
2023-04-08T02:55:48.122Z,6.90
2023-04-08T02:56:50.879Z,6.91
2023-04-08T02:57:53.721Z,6.94
2023-04-08T02:58:56.570Z,6.93
2023-04-08T02:59:59.431Z,6.94
2023-04-08T03:01:02.228Z,6.96
2023-04-08T03:02:05.111Z,6.98
2023-04-08T03:03:08.128Z,7.01
2023-04-08T03:04:11.325Z,7.02
2023-04-08T03:05:16.333Z,7.00
2023-04-08T03:06:19.194Z,7.00
2023-04-08T03:07:21.992Z,7.01
2023-04-08T03:08:25.107Z,7.00
2023-04-08T03:09:27.937Z,6.98
2023-04-08T03:10:31.087Z,6.97
2023-04-08T03:11:34.141Z,6.97
2023-04-08T03:12:36.974Z,6.95
2023-04-08T03:13:39.781Z,6.94
2023-04-08T03:14:42.590Z,6.93
2023-04-08T03:15:45.480Z,6.94
2023-04-08T03:16:48.605Z,6.93
2023-04-08T03:17:51.637Z,6.91
2023-04-08T03:18:54.610Z,6.92
2023-04-08T03:19:57.499Z,6.93
2023-04-08T03:21:01.470Z,6.95
2023-04-08T03:22:04.293Z,6.95
2023-04-08T03:23:07.393Z,6.93
2023-04-08T03:24:10.326Z,6.97
2023-04-08T03:25:13.186Z,6.98
2023-04-08T03:26:16.077Z,6.99
2023-04-08T03:27:18.859Z,6.98
2023-04-08T03:28:21.665Z,6.97
2023-04-08T03:29:24.695Z,6.99
2023-04-08T03:30:27.958Z,7.01
2023-04-08T03:31:31.137Z,7.02
2023-04-08T03:32:33.943Z,6.99
2023-04-08T03:33:36.814Z,6.96
2023-04-08T03:34:39.606Z,6.95
2023-04-08T03:35:42.466Z,6.96
2023-04-08T03:36:45.389Z,6.96
2023-04-08T03:37:48.687Z,6.97
2023-04-08T03:38:51.683Z,6.99
2023-04-08T03:41:30.693Z,7.01
2023-04-08T03:42:35.127Z,7.08
2023-04-08T03:43:38.092Z,7.12
2023-04-08T03:44:41.062Z,7.14
2023-04-08T03:45:43.884Z,7.13
2023-04-08T03:46:46.718Z,7.13
2023-04-08T03:47:49.606Z,7.14
2023-04-08T03:48:52.680Z,7.15
2023-04-08T03:49:55.832Z,7.14
2023-04-08T03:50:58.736Z,7.14
2023-04-08T03:52:02.160Z,7.15
2023-04-08T03:53:05.151Z,7.15
2023-04-08T03:54:08.062Z,7.17
2023-04-08T03:55:10.848Z,7.20
2023-04-08T03:56:13.709Z,7.21
2023-04-08T03:57:16.815Z,7.23
2023-04-08T03:58:19.579Z,7.24
2023-04-08T03:59:22.996Z,7.25
2023-04-08T04:00:25.883Z,7.26
2023-04-08T04:01:30.130Z,7.26
2023-04-08T04:02:33.077Z,7.25
2023-04-08T04:03:36.092Z,7.23
2023-04-08T04:04:39.142Z,7.22
2023-04-08T04:05:41.977Z,7.22
2023-04-08T04:06:44.833Z,7.21
2023-04-08T04:07:48.001Z,7.21
2023-04-08T04:08:53.253Z,7.19
2023-04-08T04:09:57.212Z,7.19
2023-04-08T04:11:00.343Z,7.19
2023-04-08T04:12:03.377Z,7.17
2023-04-08T04:13:06.311Z,7.16
2023-04-08T04:14:09.131Z,7.15
2023-04-08T04:15:12.131Z,7.14
2023-04-08T04:16:15.152Z,7.13
2023-04-08T04:17:18.105Z,7.13
2023-04-08T04:18:21.022Z,7.12
2023-04-08T04:19:23.837Z,7.12
2023-04-08T04:20:26.640Z,7.10
2023-04-08T04:21:29.502Z,7.10
2023-04-08T04:22:32.418Z,7.08
2023-04-08T04:23:35.543Z,7.07
2023-04-08T04:24:38.782Z,7.06
2023-04-08T04:25:42.890Z,7.07
2023-04-08T04:26:45.746Z,7.08
2023-04-08T04:27:48.510Z,7.07
2023-04-08T04:28:51.587Z,7.07
2023-04-08T04:29:54.685Z,7.06
2023-04-08T04:30:57.490Z,7.05
2023-04-08T04:32:00.345Z,7.04
2023-04-08T04:33:03.287Z,7.05
2023-04-08T04:34:06.262Z,7.07
2023-04-08T04:35:13.027Z,7.09
2023-04-08T04:36:16.142Z,7.10
2023-04-08T04:37:18.984Z,7.09
2023-04-08T04:38:21.747Z,7.08
2023-04-08T04:39:24.761Z,7.07
2023-04-08T04:40:27.573Z,7.06
2023-04-08T04:41:30.416Z,7.06
2023-04-08T04:42:33.358Z,7.06
2023-04-08T04:43:36.671Z,7.06
2023-04-08T04:44:39.555Z,7.07
2023-04-08T04:45:42.439Z,7.08
2023-04-08T04:46:45.277Z,7.10
2023-04-08T04:47:48.111Z,7.10
2023-04-08T04:48:51.638Z,7.09
2023-04-08T04:49:54.729Z,7.11
2023-04-08T04:50:59.217Z,7.11
2023-04-08T04:52:02.171Z,7.12
2023-04-08T04:53:05.041Z,7.13
2023-04-08T04:54:07.797Z,7.13
2023-04-08T04:55:10.974Z,7.13
2023-04-08T04:56:13.821Z,7.12
2023-04-08T04:57:16.635Z,7.12
2023-04-08T04:58:19.430Z,7.13
2023-04-08T04:59:22.252Z,7.13
2023-04-08T05:00:25.454Z,7.14
2023-04-08T05:01:29.199Z,7.14
2023-04-08T05:02:32.470Z,7.15
2023-04-08T05:03:35.486Z,7.17
2023-04-08T05:04:38.388Z,7.18
2023-04-08T05:05:41.574Z,7.19
2023-04-08T05:06:44.389Z,7.20
2023-04-08T05:07:47.286Z,7.22
2023-04-08T05:08:52.016Z,7.25
2023-04-08T05:09:54.998Z,7.28
2023-04-08T05:11:02.037Z,7.31
2023-04-08T05:12:05.317Z,7.34
2023-04-08T05:13:08.229Z,7.35
2023-04-08T05:14:11.246Z,7.38
2023-04-08T05:15:14.438Z,7.40
2023-04-08T05:16:17.911Z,7.42
2023-04-08T05:17:20.871Z,7.44
2023-04-08T05:18:23.657Z,7.45
2023-04-08T05:19:26.519Z,7.47
2023-04-08T05:20:29.772Z,7.47
2023-04-08T05:21:32.830Z,7.47
2023-04-08T05:22:35.672Z,7.47
2023-04-08T05:23:38.588Z,7.48
2023-04-08T05:24:41.890Z,7.50
2023-04-08T05:25:44.855Z,7.52
2023-04-08T05:26:52.293Z,7.53
2023-04-08T05:27:56.161Z,7.53
2023-04-08T05:28:59.071Z,7.54
2023-04-08T05:30:02.050Z,7.58
2023-04-08T05:31:05.045Z,7.62
2023-04-08T05:32:08.164Z,7.64
2023-04-08T05:33:11.099Z,7.67
2023-04-08T05:34:14.181Z,7.69
2023-04-08T05:35:17.158Z,7.69
2023-04-08T05:36:20.526Z,7.70
2023-04-08T05:37:23.653Z,7.70
2023-04-08T05:38:26.608Z,7.70
2023-04-08T05:39:29.579Z,7.69
2023-04-08T05:40:32.405Z,7.70
2023-04-08T05:41:35.454Z,7.71
2023-04-08T05:42:38.582Z,7.72
2023-04-08T05:43:41.394Z,7.73
2023-04-08T05:44:44.266Z,7.74
2023-04-08T05:45:47.192Z,7.76
2023-04-08T05:46:50.094Z,7.77
2023-04-08T05:47:52.977Z,7.77
2023-04-08T05:48:55.855Z,7.76
2023-04-08T05:49:58.629Z,7.74
2023-04-08T05:51:02.165Z,7.73
2023-04-08T05:52:05.334Z,7.74
2023-04-08T05:53:08.259Z,7.74
2023-04-08T05:54:11.087Z,7.74
2023-04-08T05:55:14.731Z,7.74
2023-04-08T05:56:17.511Z,7.74
2023-04-08T05:57:20.737Z,7.75
2023-04-08T05:58:24.121Z,7.76
2023-04-08T05:59:27.031Z,7.78
2023-04-08T06:00:29.950Z,7.78
2023-04-08T06:01:33.012Z,7.81
2023-04-08T06:02:37.057Z,7.83
2023-04-08T06:03:40.340Z,7.85
2023-04-08T06:04:43.571Z,7.86
2023-04-08T06:05:46.532Z,7.86
2023-04-08T06:06:49.396Z,7.85
2023-04-08T06:07:52.161Z,7.86
2023-04-08T06:08:55.150Z,7.89
2023-04-08T06:09:58.131Z,7.91
2023-04-08T06:11:01.375Z,7.94
2023-04-08T06:12:04.767Z,7.96
2023-04-08T06:13:07.932Z,7.97
2023-04-08T06:14:11.046Z,8.00
2023-04-08T06:15:14.018Z,8.01
2023-04-08T06:16:19.620Z,8.01
2023-04-08T06:17:24.218Z,8.02
2023-04-08T06:18:27.149Z,8.03
2023-04-08T06:19:30.396Z,8.04
2023-04-08T06:20:33.499Z,8.05
2023-04-08T06:21:36.367Z,8.05
2023-04-08T06:22:39.293Z,8.05
2023-04-08T06:23:42.210Z,8.04
2023-04-08T06:24:47.738Z,8.06
2023-04-08T06:25:50.573Z,8.07
2023-04-08T06:26:54.256Z,8.08
2023-04-08T06:27:57.098Z,8.09
2023-04-08T06:29:00.626Z,8.10
2023-04-08T06:30:03.990Z,8.11
2023-04-08T06:31:06.994Z,8.12
2023-04-08T06:32:10.485Z,8.15
2023-04-08T06:33:13.489Z,8.16
2023-04-08T06:34:16.774Z,8.19
2023-04-08T06:35:20.074Z,8.21
2023-04-08T06:36:22.882Z,8.24
2023-04-08T06:37:25.702Z,8.24
2023-04-08T06:38:28.486Z,8.23
2023-04-08T06:39:31.357Z,8.24
2023-04-08T06:40:34.322Z,8.27
2023-04-08T06:41:37.153Z,8.29
2023-04-08T06:42:43.099Z,8.33
2023-04-08T06:43:53.928Z,8.38
2023-04-08T06:44:56.732Z,8.41
2023-04-08T06:45:59.810Z,8.44
2023-04-08T06:47:02.824Z,8.48
2023-04-08T06:48:06.985Z,8.52
2023-04-08T06:49:09.988Z,8.56
2023-04-08T06:50:12.933Z,8.58
2023-04-08T06:51:15.872Z,8.62
2023-04-08T06:52:18.958Z,8.65
2023-04-08T06:53:26.234Z,8.67
2023-04-08T06:54:29.336Z,8.69
2023-04-08T06:55:32.269Z,8.73
2023-04-08T06:56:35.073Z,8.75
2023-04-08T06:57:38.550Z,8.78
2023-04-08T06:58:41.383Z,8.81
2023-04-08T06:59:44.259Z,8.83
2023-04-08T07:00:47.457Z,8.86
2023-04-08T07:01:50.789Z,8.91
2023-04-08T07:02:54.026Z,8.95
2023-04-08T07:03:57.771Z,9.00
2023-04-08T07:05:00.705Z,9.04
2023-04-08T07:06:04.490Z,9.08
2023-04-08T07:07:07.891Z,9.12
2023-04-08T07:08:10.751Z,9.16
2023-04-08T07:09:13.556Z,9.20
2023-04-08T07:10:16.364Z,9.22
2023-04-08T07:11:19.203Z,9.25
2023-04-08T07:12:22.242Z,9.27
2023-04-08T07:13:25.180Z,9.30
2023-04-08T07:14:28.926Z,9.32
2023-04-08T07:15:31.985Z,9.33
2023-04-08T07:16:34.859Z,9.35
2023-04-08T07:17:38.052Z,9.38
2023-04-08T07:18:42.604Z,9.42
2023-04-08T07:19:45.649Z,9.46
2023-04-08T07:20:53.856Z,9.48
2023-04-08T07:21:57.935Z,9.51
2023-04-08T07:23:01.299Z,9.53
2023-04-08T07:24:04.265Z,9.56
2023-04-08T07:25:07.464Z,9.58
2023-04-08T07:26:10.338Z,9.59
2023-04-08T07:27:13.105Z,9.62
2023-04-08T07:28:16.396Z,9.62
2023-04-08T07:29:19.838Z,9.63
2023-04-08T07:30:23.526Z,9.67
2023-04-08T07:31:26.470Z,9.70
2023-04-08T07:32:29.400Z,9.72
2023-04-08T07:33:33.289Z,9.72
2023-04-08T07:34:36.878Z,9.76
2023-04-08T07:35:39.841Z,9.80
2023-04-08T07:36:43.072Z,9.83
2023-04-08T07:37:46.179Z,9.85
2023-04-08T07:38:49.230Z,9.89
2023-04-08T07:39:52.277Z,9.94
2023-04-08T07:40:55.062Z,9.99
2023-04-08T07:41:57.869Z,10.02
2023-04-08T07:43:00.650Z,10.06
2023-04-08T07:44:03.778Z,10.08
2023-04-08T07:45:07.848Z,10.10
2023-04-08T07:46:10.766Z,10.13
2023-04-08T07:47:14.104Z,10.17
2023-04-08T07:48:16.913Z,10.22
2023-04-08T07:49:20.069Z,10.26
2023-04-08T07:50:22.883Z,10.29
2023-04-08T07:51:27.653Z,10.28
2023-04-08T07:52:31.454Z,10.30
2023-04-08T07:53:34.857Z,10.30
2023-04-08T07:54:37.927Z,10.31
2023-04-08T07:55:42.465Z,10.34
2023-04-08T07:56:45.625Z,10.34
2023-04-08T07:57:48.512Z,10.36
2023-04-08T07:58:53.606Z,10.38
2023-04-08T07:59:57.318Z,10.40
2023-04-08T08:01:00.115Z,10.42
2023-04-08T08:02:03.465Z,10.41
2023-04-08T08:03:06.629Z,10.38
2023-04-08T08:04:09.824Z,10.39
2023-04-08T08:05:12.962Z,10.40
2023-04-08T08:06:16.337Z,10.39
2023-04-08T08:07:19.250Z,10.40
2023-04-08T08:08:22.061Z,10.42
2023-04-08T08:09:24.940Z,10.44
2023-04-08T08:10:28.011Z,10.46
2023-04-08T08:11:31.304Z,10.49
2023-04-08T08:12:34.137Z,10.53
2023-04-08T08:13:36.977Z,10.54
2023-04-08T08:14:39.898Z,10.55
2023-04-08T08:15:43.024Z,10.56
2023-04-08T08:16:45.877Z,10.58
2023-04-08T08:17:48.706Z,10.61
2023-04-08T08:18:51.484Z,10.64
2023-04-08T08:19:54.239Z,10.66
2023-04-08T08:20:57.256Z,10.69
2023-04-08T08:22:00.445Z,10.73
2023-04-08T08:23:03.286Z,10.75
2023-04-08T08:24:06.605Z,10.77
2023-04-08T08:25:09.945Z,10.79
2023-04-08T08:26:13.417Z,10.83
2023-04-08T08:27:16.182Z,10.89
2023-04-08T08:28:18.919Z,10.93
2023-04-08T08:29:21.824Z,10.98
2023-04-08T08:30:26.520Z,11.03
2023-04-08T08:31:29.532Z,11.07
2023-04-08T08:32:32.867Z,11.11
2023-04-08T08:33:36.086Z,11.14
2023-04-08T08:34:38.892Z,11.20
2023-04-08T08:35:41.826Z,11.24
2023-04-08T08:36:44.929Z,11.27
2023-04-08T08:37:48.259Z,11.32
2023-04-08T08:38:53.534Z,11.36
2023-04-08T08:39:56.339Z,11.38
2023-04-08T08:41:00.476Z,11.43
2023-04-08T08:42:03.334Z,11.50
2023-04-08T08:43:06.550Z,11.57
2023-04-08T08:44:10.211Z,11.63
2023-04-08T08:45:13.094Z,11.68
2023-04-08T08:46:18.290Z,11.73
2023-04-08T08:47:21.514Z,11.77
2023-04-08T08:48:24.483Z,11.84
2023-04-08T08:49:27.560Z,11.91
2023-04-08T08:50:30.411Z,11.94
2023-04-08T08:51:34.136Z,11.98
2023-04-08T08:52:37.107Z,12.05
2023-04-08T08:53:45.385Z,12.14
2023-04-08T08:54:48.499Z,12.23
2023-04-08T08:56:16.418Z,12.29
2023-04-08T08:57:18.812Z,12.35
2023-04-08T08:58:21.620Z,12.40
2023-04-08T08:59:24.527Z,12.45
2023-04-08T09:00:45.130Z,12.50
2023-04-08T09:01:48.303Z,12.53
2023-04-08T09:02:51.438Z,12.55
2023-04-08T09:04:13.158Z,12.56
2023-04-08T09:05:16.267Z,12.57
2023-04-08T09:06:19.130Z,12.60
2023-04-08T09:07:26.160Z,12.60
2023-04-08T09:08:36.941Z,12.60
2023-04-08T09:09:53.323Z,12.62
2023-04-08T09:11:10.709Z,12.67
2023-04-08T09:12:14.513Z,12.74
2023-04-08T09:13:18.109Z,12.78
2023-04-08T09:14:25.644Z,12.82
2023-04-08T09:15:28.659Z,12.85
2023-04-08T09:16:32.345Z,12.88
2023-04-08T09:17:37.810Z,12.95
2023-04-08T09:18:43.303Z,13.02
2023-04-08T09:20:06.563Z,13.09
2023-04-08T09:21:09.524Z,13.10
2023-04-08T09:22:12.349Z,13.08
2023-04-08T09:23:15.464Z,13.07
2023-04-08T09:24:29.310Z,13.09
2023-04-08T09:25:33.837Z,13.13
2023-04-08T09:26:37.708Z,13.18
2023-04-08T09:27:40.869Z,13.23
2023-04-08T09:28:57.731Z,13.26
2023-04-08T09:30:16.453Z,13.30
2023-04-08T09:31:30.685Z,13.41
2023-04-08T09:32:54.963Z,13.47
2023-04-08T09:34:00.593Z,13.55
2023-04-08T09:35:04.846Z,13.62
2023-04-08T09:36:10.071Z,13.71
2023-04-08T09:37:12.857Z,13.82
2023-04-08T09:38:16.444Z,13.92
2023-04-08T09:39:20.058Z,13.98
2023-04-08T09:40:25.294Z,14.00
2023-04-08T09:41:29.100Z,14.04
2023-04-08T09:42:33.229Z,14.10
2023-04-08T09:43:49.708Z,14.13
2023-04-08T09:44:54.735Z,14.16
2023-04-08T09:46:01.745Z,14.17
2023-04-08T09:47:20.250Z,14.19
2023-04-08T09:48:27.875Z,14.26
2023-04-08T09:49:58.033Z,14.29
2023-04-08T09:51:01.016Z,14.40
2023-04-08T09:52:09.939Z,14.47
2023-04-08T09:53:34.455Z,14.54
2023-04-08T09:54:46.157Z,14.53
2023-04-08T09:55:53.321Z,14.53
2023-04-08T09:57:04.458Z,14.56
2023-04-08T09:58:19.317Z,14.56
2023-04-08T09:59:27.367Z,14.56
2023-04-08T10:00:34.620Z,14.59
2023-04-08T10:01:40.324Z,14.64
2023-04-08T10:03:19.080Z,14.71
2023-04-08T10:04:26.657Z,14.84
2023-04-08T10:05:31.431Z,14.89
2023-04-08T10:06:35.835Z,14.89
2023-04-08T10:07:39.547Z,14.90
2023-04-08T10:08:42.911Z,14.88
2023-04-08T10:09:46.351Z,14.89
2023-04-08T10:10:50.070Z,14.94
2023-04-08T10:11:53.865Z,15.00
2023-04-08T10:12:57.685Z,15.05
2023-04-08T10:14:01.145Z,15.05
2023-04-08T10:15:29.499Z,15.05
2023-04-08T10:16:32.369Z,15.04
2023-04-08T10:17:36.944Z,15.04
2023-04-08T10:18:40.312Z,15.05
2023-04-08T10:19:44.621Z,15.06
2023-04-08T10:20:49.310Z,15.07
2023-04-08T10:21:52.460Z,15.11
2023-04-08T10:22:55.294Z,15.15
2023-04-08T10:24:00.243Z,15.16
2023-04-08T10:25:18.370Z,15.17
2023-04-08T10:26:35.955Z,15.11
2023-04-08T10:27:42.703Z,15.12
2023-04-08T10:28:45.825Z,15.13
2023-04-08T10:29:48.980Z,15.17
2023-04-08T10:30:57.653Z,15.24
2023-04-08T10:32:02.008Z,15.34
2023-04-08T10:33:15.225Z,15.39
2023-04-08T10:34:26.878Z,15.38
2023-04-08T10:35:35.967Z,15.35
2023-04-08T10:36:38.939Z,15.36
2023-04-08T10:37:41.943Z,15.36
2023-04-08T10:38:46.781Z,15.31
2023-04-08T10:39:51.980Z,15.29
2023-04-08T10:40:55.105Z,15.29
2023-04-08T10:41:58.197Z,15.28
2023-04-08T10:43:01.116Z,15.23
2023-04-08T10:44:04.210Z,15.22
2023-04-08T10:45:07.611Z,15.21
2023-04-08T10:46:10.912Z,15.24
2023-04-08T10:47:13.902Z,15.27
2023-04-08T10:48:24.851Z,15.32
2023-04-08T10:49:34.951Z,15.37
2023-04-08T10:50:37.807Z,15.42
2023-04-08T10:51:42.323Z,15.43
2023-04-08T10:52:49.227Z,15.49
2023-04-08T10:53:53.286Z,15.57
2023-04-08T10:54:56.179Z,15.62
2023-04-08T10:56:09.076Z,15.66
2023-04-08T10:57:12.558Z,15.62
2023-04-08T10:58:15.637Z,15.55
2023-04-08T10:59:28.534Z,15.54
2023-04-08T11:00:36.919Z,15.57
2023-04-08T11:01:41.448Z,15.61
2023-04-08T11:02:45.101Z,15.64
2023-04-08T11:03:49.200Z,15.69
2023-04-08T11:04:54.389Z,15.74
2023-04-08T11:05:58.495Z,15.76
2023-04-08T11:07:05.902Z,15.75
2023-04-08T11:08:09.265Z,15.73
2023-04-08T11:09:12.818Z,15.61
2023-04-08T11:10:15.584Z,15.49
2023-04-08T11:11:19.346Z,15.45
2023-04-08T11:12:23.214Z,15.41
2023-04-08T11:13:26.339Z,15.32
2023-04-08T11:14:29.249Z,15.23
2023-04-08T11:15:32.528Z,15.18
2023-04-08T11:16:37.106Z,15.20
2023-04-08T11:17:40.281Z,15.26
2023-04-08T11:18:43.581Z,15.33
2023-04-08T11:19:46.773Z,15.33
2023-04-08T11:20:53.938Z,15.27
2023-04-08T11:21:57.116Z,15.22
2023-04-08T11:23:00.305Z,15.26
2023-04-08T11:24:07.807Z,15.37
2023-04-08T11:25:11.890Z,15.49
2023-04-08T11:26:15.572Z,15.51
2023-04-08T11:27:18.508Z,15.46
2023-04-08T11:28:22.644Z,15.40
2023-04-08T11:29:25.844Z,15.38
2023-04-08T11:30:30.110Z,15.46
2023-04-08T11:31:33.780Z,15.60
2023-04-08T11:32:38.271Z,15.73
2023-04-08T11:33:53.926Z,15.83
2023-04-08T11:34:59.773Z,15.93
2023-04-08T11:36:06.307Z,16.00
2023-04-08T11:37:09.219Z,16.09
2023-04-08T11:38:12.083Z,16.16
2023-04-08T11:39:16.294Z,16.21
2023-04-08T11:40:22.768Z,16.19
2023-04-08T11:41:36.243Z,16.16
2023-04-08T11:42:40.340Z,16.09
2023-04-08T11:43:54.192Z,16.10
2023-04-08T11:44:57.604Z,16.16
2023-04-08T11:46:01.310Z,16.17
2023-04-08T11:47:04.502Z,16.17
2023-04-08T11:48:12.533Z,16.15
2023-04-08T11:49:15.434Z,16.13
2023-04-08T11:50:26.090Z,16.07
2023-04-08T11:51:29.672Z,16.10
2023-04-08T11:52:47.005Z,16.18
2023-04-08T11:53:54.691Z,16.29
2023-04-08T11:54:59.063Z,16.44
2023-04-08T11:56:22.429Z,16.55
2023-04-08T11:57:32.876Z,16.67
2023-04-08T11:58:35.845Z,16.71
2023-04-08T11:59:38.956Z,16.83
2023-04-08T12:00:42.783Z,16.97
2023-04-08T12:01:46.236Z,17.09
2023-04-08T12:02:50.134Z,17.18
2023-04-08T12:04:01.682Z,17.27
2023-04-08T12:05:05.182Z,17.35
2023-04-08T12:06:09.722Z,17.41
2023-04-08T12:07:13.562Z,17.51
2023-04-08T12:08:16.424Z,17.62
2023-04-08T12:09:19.423Z,17.71
2023-04-08T12:10:22.453Z,17.83
2023-04-08T12:11:25.281Z,17.95
2023-04-08T12:12:28.108Z,18.10
2023-04-08T12:13:31.667Z,18.26
2023-04-08T12:14:34.519Z,18.46
2023-04-08T12:15:38.016Z,18.56
2023-04-08T12:16:41.035Z,18.68
2023-04-08T12:17:44.625Z,18.87
2023-04-08T12:18:47.943Z,19.13
2023-04-08T12:19:51.198Z,19.41
2023-04-08T12:20:54.880Z,19.67
2023-04-08T12:21:57.825Z,19.89
2023-04-08T12:23:00.746Z,20.13
2023-04-08T12:24:03.680Z,20.25
2023-04-08T12:25:07.581Z,20.40
2023-04-08T12:26:11.798Z,20.60
2023-04-08T12:27:14.743Z,20.70
2023-04-08T12:28:17.567Z,20.80
2023-04-08T12:29:20.716Z,20.81
2023-04-08T12:30:23.672Z,20.82
2023-04-08T12:31:27.904Z,20.87
2023-04-08T12:32:31.023Z,21.02
2023-04-08T12:33:33.936Z,21.12
2023-04-08T12:34:36.783Z,21.21
2023-04-08T12:35:39.944Z,21.35
2023-04-08T12:36:43.100Z,21.41
2023-04-08T12:37:46.162Z,21.39
2023-04-08T12:38:49.100Z,21.29
2023-04-08T12:39:52.535Z,21.21
2023-04-08T12:40:56.182Z,21.05
2023-04-08T12:41:59.627Z,20.81
2023-04-08T12:43:02.441Z,20.57
2023-04-08T12:44:05.708Z,20.38
2023-04-08T12:45:09.516Z,20.28
2023-04-08T12:46:13.042Z,20.21
2023-04-08T12:47:16.414Z,20.16
2023-04-08T12:48:19.599Z,20.12
2023-04-08T12:49:23.431Z,20.16
2023-04-08T12:50:26.555Z,20.12
2023-04-08T12:51:29.655Z,19.96
2023-04-08T12:52:33.455Z,19.81
2023-04-08T12:53:36.452Z,19.66
2023-04-08T12:54:39.449Z,19.55
2023-04-08T12:55:44.550Z,19.62
2023-04-08T12:56:48.878Z,19.81
2023-04-08T12:57:52.517Z,20.02
2023-04-08T12:58:56.827Z,20.10
2023-04-08T12:59:59.919Z,20.04
2023-04-08T13:01:02.937Z,19.93
2023-04-08T13:02:06.164Z,19.86
2023-04-08T13:03:09.270Z,19.78
2023-04-08T13:04:12.368Z,19.74
2023-04-08T13:05:17.062Z,19.73
2023-04-08T13:06:20.537Z,19.72
2023-04-08T13:07:23.988Z,19.75
2023-04-08T13:08:26.907Z,19.83
2023-04-08T13:09:30.929Z,19.93
2023-04-08T13:10:33.975Z,20.07
2023-04-08T13:11:37.523Z,20.21
2023-04-08T13:12:40.553Z,20.32
2023-04-08T13:13:44.028Z,20.28
2023-04-08T13:14:47.079Z,20.13
2023-04-08T13:15:49.956Z,20.08
2023-04-08T13:16:53.104Z,20.08
2023-04-08T13:17:56.270Z,20.07
2023-04-08T13:18:59.372Z,20.07
2023-04-08T13:20:02.680Z,20.08
2023-04-08T13:21:05.771Z,20.02
2023-04-08T13:22:08.639Z,20.04
2023-04-08T13:23:11.907Z,20.07
2023-04-08T13:24:15.019Z,19.98
2023-04-08T13:25:17.875Z,19.79
2023-04-08T13:26:20.758Z,19.58
2023-04-08T13:27:23.636Z,19.35
2023-04-08T13:28:26.599Z,19.21
2023-04-08T13:29:29.512Z,19.10
2023-04-08T13:30:32.358Z,19.01
2023-04-08T13:31:35.463Z,18.84
2023-04-08T13:32:38.442Z,18.71
2023-04-08T13:33:41.262Z,18.58
2023-04-08T13:34:44.421Z,18.39
2023-04-08T13:35:47.283Z,18.24
2023-04-08T13:36:50.470Z,18.15
2023-04-08T13:37:53.340Z,18.24
2023-04-08T13:38:56.719Z,18.41
2023-04-08T13:39:59.723Z,18.47
2023-04-08T13:41:02.957Z,18.42
2023-04-08T13:42:05.850Z,18.41
2023-04-08T13:43:08.701Z,18.40
2023-04-08T13:44:11.595Z,18.41
2023-04-08T13:45:14.764Z,18.40
2023-04-08T13:46:18.253Z,18.42
2023-04-08T13:47:21.570Z,18.49
2023-04-08T13:48:24.442Z,18.55
2023-04-08T13:49:27.674Z,18.61
2023-04-08T13:50:30.721Z,18.62
2023-04-08T13:51:33.834Z,18.58
2023-04-08T13:52:37.097Z,18.66
2023-04-08T13:53:39.936Z,18.80
2023-04-08T13:54:42.777Z,18.84
2023-04-08T13:55:46.200Z,18.85
2023-04-08T13:56:49.120Z,18.86
2023-04-08T13:57:51.976Z,18.75
2023-04-08T13:58:57.525Z,18.57
2023-04-08T14:00:00.876Z,18.47
2023-04-08T14:01:04.204Z,18.39
2023-04-08T14:02:07.855Z,18.34
2023-04-08T14:03:11.071Z,18.27
2023-04-08T14:04:14.355Z,18.11
2023-04-08T14:05:17.236Z,17.92
2023-04-08T14:06:20.304Z,17.78
2023-04-08T14:07:23.216Z,17.72
2023-04-08T14:08:26.127Z,17.63